Time;durP1;ratioP1;P1;durP2;ratioP2;P2;SDS_P1;SDS_P2;PMS_P1;PMS_P2;Temp;Humidity;BMP_temperature;BMP_pressure;BME280_temperature;BME280_humidity;BME280_pressure;Samples;Min_cycle;Max_cycle;Signal;HPM_P1;HPM_P2
2022/12/13 00:02:25;;;;;;;2.88;2.00;;;18.30;93.70;;;;;;7406808;19;19936;-36
2022/12/13 00:04:55;;;;;;;3.67;1.30;;;18.20;93.80;;;;;;7407682;19;19917;-36
2022/12/13 00:07:24;;;;;;;4.22;2.50;;;18.20;93.80;;;;;;7406019;19;20705;-36
2022/12/13 00:09:53;;;;;;;3.88;2.58;;;18.00;93.90;;;;;;7396594;19;19926;-36
2022/12/13 00:12:25;;;;;;;3.92;1.45;;;18.00;93.90;;;;;;7404136;19;19923;-36
2022/12/13 00:14:54;;;;;;;4.18;2.28;;;17.90;94.20;;;;;;7406232;19;19918;-36
2022/12/13 00:17:23;;;;;;;3.55;1.70;;;17.80;94.20;;;;;;7405926;19;19918;-36
2022/12/13 00:19:52;;;;;;;3.78;2.25;;;17.70;94.00;;;;;;7405351;19;20336;-36
2022/12/13 00:22:20;;;;;;;3.97;1.83;;;17.60;94.00;;;;;;7406341;19;19930;-35
2022/12/13 00:24:50;;;;;;;3.08;2.13;;;17.60;94.00;;;;;;7404888;19;19923;-36
2022/12/13 00:27:19;;;;;;;4.50;2.10;;;17.50;94.00;;;;;;7396406;19;19922;-36
2022/12/13 00:29:50;;;;;;;3.95;2.40;;;17.40;94.30;;;;;;7403951;19;19934;-36
2022/12/13 00:32:19;;;;;;;3.40;2.20;;;17.30;94.10;;;;;;7404875;19;19922;-36
2022/12/13 00:34:48;;;;;;;4.18;2.33;;;17.30;94.10;;;;;;7402124;19;19922;-35
2022/12/13 00:37:18;;;;;;;4.53;2.30;;;17.20;94.20;;;;;;7404001;19;20490;-36
2022/12/13 00:39:47;;;;;;;4.00;1.85;;;17.20;94.50;;;;;;7402116;19;19929;-35
2022/12/13 00:42:16;;;;;;;3.88;1.65;;;17.20;94.20;;;;;;7397411;19;19945;-36
2022/12/13 00:44:45;;;;;;;2.97;1.60;;;17.10;94.20;;;;;;7401976;19;19998;-36
2022/12/13 00:47:17;;;;;;;3.38;2.50;;;17.00;94.30;;;;;;7405302;19;19919;-36
2022/12/13 00:49:46;;;;;;;4.25;2.30;;;17.00;94.30;;;;;;7401012;19;19978;-36
2022/12/13 00:52:15;;;;;;;4.85;2.70;;;16.90;94.30;;;;;;7401877;19;19926;-36
2022/12/13 00:54:45;;;;;;;3.50;2.10;;;16.90;94.30;;;;;;7399996;19;19923;-36
2022/12/13 00:57:14;;;;;;;3.40;2.50;;;16.90;94.30;;;;;;7404582;19;19915;-36
2022/12/13 00:59:43;;;;;;;4.03;1.75;;;16.80;94.30;;;;;;7398241;19;19928;-37
2022/12/13 01:02:12;;;;;;;2.92;1.40;;;16.80;94.30;;;;;;7401156;19;19943;-35
2022/12/13 01:04:43;;;;;;;3.40;1.50;;;16.80;94.40;;;;;;7403585;19;19991;-36
2022/12/13 01:07:13;;;;;;;4.03;2.42;;;16.80;94.40;;;;;;7404214;19;19982;-36
2022/12/13 01:09:46;;;;;;;3.22;1.58;;;16.70;94.50;;;;;;7404172;19;20333;-36
2022/12/13 01:12:15;;;;;;;3.45;1.67;;;16.70;94.50;;;;;;7405415;19;19959;-35
2022/12/13 01:14:44;;;;;;;3.00;2.20;;;16.60;94.40;;;;;;7401575;19;19931;-35
2022/12/13 01:17:13;;;;;;;4.28;2.60;;;16.60;94.50;;;;;;7396733;19;20336;-36
2022/12/13 01:19:45;;;;;;;3.50;1.70;;;16.50;94.50;;;;;;7403369;19;20260;-36
2022/12/13 01:22:14;;;;;;;3.00;1.40;;;16.50;94.60;;;;;;7404561;19;19981;-36
2022/12/13 01:24:43;;;;;;;4.50;2.67;;;16.40;94.60;;;;;;7404382;19;19914;-36
2022/12/13 01:27:12;;;;;;;3.78;2.13;;;16.30;94.70;;;;;;7402705;19;19990;-35
2022/12/13 01:29:41;;;;;;;3.08;1.60;;;16.30;94.70;;;;;;7403236;19;19926;-36
2022/12/13 01:32:10;;;;;;;3.80;2.30;;;16.20;94.70;;;;;;7403767;19;19928;-36
2022/12/13 01:34:39;;;;;;;3.95;2.35;;;16.20;94.70;;;;;;7401001;19;19947;-37
2022/12/13 01:37:10;;;;;;;3.35;1.50;;;16.10;94.80;;;;;;7402870;19;19918;-36
2022/12/13 01:39:41;;;;;;;3.97;1.80;;;16.10;94.80;;;;;;7401609;19;19952;-37
2022/12/13 01:42:16;;;;;;;5.07;2.17;;;16.00;95.10;;;;;;7404904;19;19927;-40
2022/12/13 01:45:04;;;;;;;3.28;1.75;;;16.00;94.90;;;;;;7402326;19;19934;-38
2022/12/13 01:47:38;;;;;;;4.07;2.30;;;16.00;94.90;;;;;;7403936;19;19926;-37
2022/12/13 01:50:12;;;;;;;3.72;2.30;;;15.90;94.90;;;;;;7402957;19;19982;-37
2022/12/13 01:52:46;;;;;;;4.22;1.42;;;15.90;94.90;;;;;;7395877;19;19922;-36
2022/12/13 01:55:19;;;;;;;3.33;1.35;;;15.80;94.90;;;;;;7401094;19;19925;-36
2022/12/13 01:57:51;;;;;;;4.22;2.45;;;15.80;94.90;;;;;;7401513;19;19923;-36
2022/12/13 02:00:21;;;;;;;3.67;1.73;;;15.80;94.90;;;;;;7400624;19;19922;-36
2022/12/13 02:02:51;;;;;;;4.65;2.83;;;15.80;94.90;;;;;;7402105;19;19930;-36
2022/12/13 02:05:26;;;;;;;3.75;2.05;;;15.70;95.00;;;;;;7402601;19;19933;-36
2022/12/13 02:08:00;;;;;;;4.15;1.75;;;15.70;95.00;;;;;;7407138;19;19922;-36
2022/12/13 02:10:31;;;;;;;3.67;1.58;;;15.70;95.00;;;;;;7402532;19;19922;-36
2022/12/13 02:13:00;;;;;;;4.45;1.50;;;15.60;95.00;;;;;;7407291;19;20366;-35
2022/12/13 02:15:45;;;;;;;3.60;1.70;;;15.60;95.00;;;;;;7407886;19;19966;-36
2022/12/13 02:18:28;;;;;;;4.45;1.80;;;15.60;95.10;;;;;;7409365;19;20336;-36
2022/12/13 02:21:12;;;;;;;3.15;1.58;;;15.50;95.10;;;;;;7409913;19;19922;-36
2022/12/13 02:24:12;;;;;;;5.40;2.50;;;15.50;95.10;;;;;;7409056;19;19923;-37
2022/12/13 02:26:53;;;;;;;4.45;2.20;;;15.50;95.10;;;;;;7407331;19;19915;-36
2022/12/13 02:30:05;;;;;;;4.93;1.80;;;15.40;95.10;;;;;;7406729;19;19922;-36
2022/12/13 02:32:45;;;;;;;3.20;1.50;;;15.40;95.10;;;;;;7404177;19;19922;-35
2022/12/13 02:35:22;;;;;;;3.97;2.05;;;15.40;95.10;;;;;;7405457;19;19923;-36
2022/12/13 02:38:01;;;;;;;3.17;1.50;;;15.40;95.10;;;;;;7407018;19;19931;-36
2022/12/13 02:40:34;;;;;;;3.95;1.48;;;15.40;95.10;;;;;;7407450;19;19947;-36
2022/12/13 02:43:07;;;;;;;4.00;2.42;;;15.40;95.10;;;;;;7407611;19;19915;-36
2022/12/13 02:45:40;;;;;;;4.63;2.28;;;15.30;95.40;;;;;;7406004;19;19978;-36
2022/12/13 02:48:15;;;;;;;3.65;2.08;;;15.30;95.10;;;;;;7402046;19;19915;-36
2022/12/13 02:50:46;;;;;;;3.70;1.73;;;15.30;95.20;;;;;;7404694;19;20384;-37
2022/12/13 02:53:16;;;;;;;4.47;2.72;;;15.20;95.10;;;;;;7409125;19;20361;-35
2022/12/13 02:55:45;;;;;;;4.57;2.58;;;15.20;95.10;;;;;;7407973;19;19947;-36
2022/12/13 02:58:15;;;;;;;4.07;2.50;;;15.20;95.10;;;;;;7406933;19;19939;-36
2022/12/13 03:00:55;;;;;;;3.47;2.22;;;15.20;95.10;;;;;;7406733;19;19918;-36
2022/12/13 03:03:43;;;;;;;4.10;2.38;;;15.20;95.20;;;;;;7405250;19;19929;-36
2022/12/13 03:06:28;;;;;;;4.10;1.90;;;15.10;95.20;;;;;;7401206;19;20352;-36
2022/12/13 03:09:09;;;;;;;3.35;1.55;;;15.10;95.20;;;;;;7403800;19;19943;-36
2022/12/13 03:14:39;;;;;;;3.80;2.20;;;15.10;95.20;;;;;;7404315;19;19919;-36
2022/12/13 03:17:11;;;;;;;3.13;1.60;;;15.00;95.20;;;;;;7407877;19;20293;-36
2022/12/13 03:19:42;;;;;;;3.03;1.58;;;15.00;95.20;;;;;;7402578;19;20280;-36
2022/12/13 03:22:11;;;;;;;4.00;2.60;;;15.00;95.20;;;;;;7407633;19;19986;-36
2022/12/13 03:24:40;;;;;;;4.07;1.73;;;15.00;95.20;;;;;;7399249;19;19982;-36
2022/12/13 03:27:09;;;;;;;3.80;1.73;;;15.00;95.20;;;;;;7407214;19;19914;-35
2022/12/13 03:29:38;;;;;;;4.32;3.05;;;15.00;95.20;;;;;;7405710;19;19923;-35
2022/12/13 03:32:07;;;;;;;3.58;1.70;;;14.90;95.20;;;;;;7406431;19;19939;-35
2022/12/13 03:34:36;;;;;;;3.40;1.60;;;14.90;95.20;;;;;;7403578;19;19918;-35
2022/12/13 03:37:07;;;;;;;4.30;2.00;;;14.90;95.20;;;;;;7406853;19;19958;-36
2022/12/13 03:39:41;;;;;;;4.55;2.50;;;14.90;95.20;;;;;;7403634;19;19934;-36
2022/12/13 03:42:10;;;;;;;4.63;2.38;;;14.80;95.20;;;;;;7399241;19;19922;-36
2022/12/13 03:44:39;;;;;;;5.40;2.47;;;14.80;95.20;;;;;;7404650;19;19926;-36
2022/12/13 03:47:08;;;;;;;4.30;2.00;;;14.80;95.20;;;;;;7407602;19;19987;-35
2022/12/13 03:49:37;;;;;;;4.28;2.92;;;14.80;95.20;;;;;;7407328;19;19922;-35
2022/12/13 03:52:09;;;;;;;4.43;1.80;;;14.80;95.20;;;;;;7406283;19;19994;-36
2022/12/13 03:54:37;;;;;;;3.88;2.63;;;14.80;95.20;;;;;;7405520;19;21394;-36
2022/12/13 03:57:06;;;;;;;3.88;2.08;;;14.70;95.20;;;;;;7405600;19;19925;-36
2022/12/13 03:59:35;;;;;;;4.30;2.05;;;14.70;95.20;;;;;;7403502;19;20282;-36
2022/12/13 04:02:04;;;;;;;3.75;2.00;;;14.70;95.20;;;;;;7407360;19;19923;-36
2022/12/13 04:04:34;;;;;;;5.00;3.00;;;14.70;95.20;;;;;;7406637;19;19943;-36
2022/12/13 04:07:02;;;;;;;5.50;1.98;;;14.70;95.40;;;;;;7405217;19;19919;-36
2022/12/13 04:09:35;;;;;;;4.68;2.50;;;14.70;95.20;;;;;;7403964;19;19924;-36
2022/12/13 04:14:46;;;;;;;4.40;3.03;;;14.70;95.20;;;;;;7404352;19;19986;-35
2022/12/13 04:17:16;;;;;;;5.05;2.65;;;14.60;95.10;;;;;;7404228;19;19926;-36
2022/12/13 04:19:45;;;;;;;3.80;1.80;;;14.60;95.10;;;;;;7404873;19;19922;-37
2022/12/13 04:22:14;;;;;;;4.80;1.95;;;14.60;95.10;;;;;;7405754;19;19918;-36
2022/12/13 04:24:45;;;;;;;4.60;2.70;;;14.60;95.20;;;;;;7405160;19;19919;-36
2022/12/13 04:27:14;;;;;;;5.30;2.85;;;14.60;95.20;;;;;;7403902;19;20346;-36
2022/12/13 04:29:43;;;;;;;5.05;3.00;;;14.60;95.10;;;;;;7403123;19;19925;-36
2022/12/13 04:32:12;;;;;;;3.50;2.40;;;14.60;95.10;;;;;;7403359;19;19915;-37
2022/12/13 04:34:41;;;;;;;3.85;1.98;;;14.60;95.10;;;;;;7402775;19;19922;-36
2022/12/13 04:37:11;;;;;;;4.75;2.08;;;14.60;95.10;;;;;;7394611;19;19922;-35
2022/12/13 04:39:40;;;;;;;5.25;2.45;;;14.50;95.10;;;;;;7404262;19;19954;-36
2022/12/13 04:42:13;;;;;;;4.80;2.95;;;14.50;95.10;;;;;;7405234;19;19926;-35
2022/12/13 04:44:42;;;;;;;5.00;2.58;;;14.50;95.10;;;;;;7402848;19;19978;-36
2022/12/13 04:47:11;;;;;;;4.65;2.33;;;14.50;95.10;;;;;;7402944;19;19933;-36
2022/12/13 04:49:40;;;;;;;5.10;2.88;;;14.50;95.10;;;;;;7401027;19;19919;-36
2022/12/13 04:52:09;;;;;;;4.15;2.08;;;14.50;95.10;;;;;;7404708;19;19922;-37
2022/12/13 04:54:38;;;;;;;4.20;2.08;;;14.50;95.10;;;;;;7403564;19;20337;-36
2022/12/13 04:57:14;;;;;;;4.13;2.17;;;14.40;95.10;;;;;;7404011;19;20322;-37
2022/12/13 04:59:45;;;;;;;4.22;2.28;;;14.50;95.10;;;;;;7405147;19;19939;-35
2022/12/13 05:02:15;;;;;;;4.50;3.50;;;14.40;95.10;;;;;;7404344;19;19929;-36
2022/12/13 05:04:43;;;;;;;3.95;1.98;;;14.40;95.10;;;;;;7403784;19;19933;-36
2022/12/13 05:07:13;;;;;;;5.53;3.30;;;14.40;95.10;;;;;;7406381;19;20352;-36
2022/12/13 05:09:42;;;;;;;3.65;1.55;;;14.40;95.10;;;;;;7405722;19;19923;-36
2022/12/13 05:12:14;;;;;;;4.07;1.90;;;14.40;95.10;;;;;;7405377;19;19922;-35
2022/12/13 05:14:43;;;;;;;6.28;2.20;;;14.40;95.10;;;;;;7405316;19;19939;-37
2022/12/13 05:17:12;;;;;;;4.53;2.22;;;14.40;95.10;;;;;;7402613;19;19926;-36
2022/12/13 05:19:41;;;;;;;4.40;1.83;;;14.30;95.10;;;;;;7397109;19;19980;-36
2022/12/13 05:22:14;;;;;;;5.28;2.97;;;14.40;95.10;;;;;;7403306;19;20310;-36
2022/12/13 05:24:44;;;;;;;3.92;2.70;;;14.30;95.00;;;;;;7406263;19;19927;-35
2022/12/13 05:27:15;;;;;;;;;;;14.40;95.10;;;;;;7407571;19;19915;-36
2022/12/13 05:29:44;;;;;;;4.43;2.70;;;14.30;95.10;;;;;;7404903;19;19919;-36
2022/12/13 05:32:15;;;;;;;4.82;3.13;;;14.30;95.10;;;;;;7405519;19;20357;-36
2022/12/13 05:34:44;;;;;;;4.63;2.33;;;14.30;95.10;;;;;;7404817;19;19925;-35
2022/12/13 05:37:13;;;;;;;4.55;2.25;;;14.30;95.10;;;;;;7404306;19;20207;-36
2022/12/13 05:39:42;;;;;;;4.45;2.78;;;14.30;95.10;;;;;;7389954;19;19977;-36
2022/12/13 05:42:11;;;;;;;5.32;3.03;;;14.30;95.30;;;;;;7401258;19;19923;-35
2022/12/13 05:44:43;;;;;;;4.72;2.10;;;14.30;95.10;;;;;;7403112;19;19943;-35
2022/12/13 05:47:12;;;;;;;4.30;1.92;;;14.20;95.10;;;;;;7404512;19;19947;-41
2022/12/13 05:49:41;;;;;;;4.35;2.75;;;14.20;95.00;;;;;;7403477;19;19937;-38
2022/12/13 05:52:18;;;;;;;4.65;3.03;;;14.20;95.10;;;;;;7404079;19;20345;-36
2022/12/13 05:54:56;;;;;;;4.45;2.95;;;14.20;95.10;;;;;;7401702;19;20300;-36
2022/12/13 05:57:35;;;;;;;4.90;3.03;;;14.10;95.10;;;;;;7395594;19;19923;-36
2022/12/13 06:00:10;;;;;;;5.35;2.13;;;14.20;95.30;;;;;;7400520;19;20021;-36
2022/12/13 06:02:39;;;;;;;4.90;2.05;;;14.20;95.00;;;;;;7399477;19;19922;-36
2022/12/13 06:05:09;;;;;;;3.90;2.00;;;14.20;95.00;;;;;;7402320;19;19994;-38
2022/12/13 06:07:39;;;;;;;4.75;2.20;;;14.20;95.00;;;;;;7401871;19;19928;-36
2022/12/13 06:10:10;;;;;;;4.25;2.05;;;14.20;94.90;;;;;;7399892;19;20304;-36
2022/12/13 06:12:39;;;;;;;4.20;2.15;;;14.20;94.90;;;;;;7401190;19;19936;-36
2022/12/13 06:15:12;;;;;;;4.47;2.75;;;14.30;94.90;;;;;;7399194;19;19921;-36
2022/12/13 06:17:41;;;;;;;4.45;1.92;;;14.20;94.90;;;;;;7402286;19;19930;-36
2022/12/13 06:20:11;;;;;;;4.82;3.40;;;14.20;94.90;;;;;;7390003;19;19922;-36
2022/12/13 06:22:41;;;;;;;4.65;2.55;;;14.20;94.90;;;;;;7402551;19;19922;-35
2022/12/13 06:25:10;;;;;;;3.85;2.63;;;14.20;94.90;;;;;;7402662;19;20352;-36
2022/12/13 06:27:39;;;;;;;4.53;2.03;;;14.20;94.90;;;;;;7400229;19;20363;-36
2022/12/13 06:30:12;;;;;;;5.35;2.33;;;14.20;94.90;;;;;;7394420;19;19929;-37
2022/12/13 06:32:41;;;;;;;5.10;3.08;;;14.20;94.90;;;;;;7400708;19;19923;-35
2022/12/13 06:35:11;;;;;;;5.07;3.30;;;14.20;94.90;;;;;;7399503;19;19985;-36
2022/12/13 06:37:40;;;;;;;4.28;2.40;;;14.10;94.90;;;;;;7400985;19;20279;-36
2022/12/13 06:40:10;;;;;;;5.10;2.90;;;14.10;94.90;;;;;;7401025;19;19919;-36
2022/12/13 06:42:43;;;;;;;4.47;2.55;;;14.10;94.90;;;;;;7404078;19;20260;-36
2022/12/13 06:45:15;;;;;;;4.80;2.25;;;14.10;94.90;;;;;;7396073;19;19919;-40
2022/12/13 06:47:44;;;;;;;4.68;2.42;;;14.10;94.90;;;;;;7401451;19;19923;-43
2022/12/13 06:50:16;;;;;;;5.35;2.33;;;14.10;94.90;;;;;;7399613;19;19958;-36
2022/12/13 06:52:48;;;;;;;4.72;2.45;;;14.10;94.90;;;;;;7405591;19;19922;-36
2022/12/13 06:55:17;;;;;;;4.40;2.88;;;14.10;94.90;;;;;;7404399;19;19926;-36
2022/12/13 06:57:46;;;;;;;4.25;2.10;;;14.00;94.90;;;;;;7406278;19;19984;-35
2022/12/13 07:00:19;;;;;;;4.38;2.17;;;14.00;94.90;;;;;;7403451;19;20333;-36
2022/12/13 07:02:54;;;;;;;5.93;3.85;;;14.00;94.90;;;;;;7405694;19;19919;-37
2022/12/13 07:05:23;;;;;;;4.60;2.35;;;14.00;94.90;;;;;;7408342;19;19923;-36
2022/12/13 07:07:53;;;;;;;4.45;2.72;;;14.00;94.90;;;;;;7400928;19;19918;-35
2022/12/13 07:10:24;;;;;;;4.75;3.53;;;14.00;95.00;;;;;;7400413;19;19977;-36
2022/12/13 07:12:54;;;;;;;5.82;3.58;;;14.00;94.90;;;;;;7405240;19;19961;-36
2022/12/13 07:15:25;;;;;;;5.53;3.75;;;13.90;94.90;;;;;;7406152;19;19922;-35
2022/12/13 07:17:54;;;;;;;4.60;3.15;;;13.90;94.90;;;;;;7403916;19;19989;-35
2022/12/13 07:20:23;;;;;;;4.50;3.05;;;13.90;94.90;;;;;;7409499;19;19950;-36
2022/12/13 07:22:55;;;;;;;5.72;3.10;;;13.90;94.90;;;;;;7407006;19;19934;-36
2022/12/13 07:25:24;;;;;;;5.57;3.78;;;13.90;94.90;;;;;;7400896;19;19937;-35
2022/12/13 07:27:58;;;;;;;4.05;1.92;;;13.90;94.90;;;;;;7403024;19;19927;-36
2022/12/13 07:30:30;;;;;;;5.13;3.38;;;13.80;94.90;;;;;;7406648;19;19926;-37
2022/12/13 07:32:59;;;;;;;5.05;2.75;;;13.90;94.90;;;;;;7405002;19;19918;-38
2022/12/13 07:35:28;;;;;;;5.20;2.72;;;13.80;94.90;;;;;;7406751;19;19947;-35
2022/12/13 07:37:57;;;;;;;5.22;2.55;;;13.90;94.90;;;;;;7405319;19;19922;-36
2022/12/13 07:40:27;;;;;;;5.18;2.55;;;13.80;94.80;;;;;;7405806;19;19923;-36
2022/12/13 07:42:57;;;;;;;5.30;3.92;;;13.80;94.80;;;;;;7395806;19;19934;-36
2022/12/13 07:45:26;;;;;;;4.88;2.72;;;13.80;94.80;;;;;;7403640;19;20293;-36
2022/12/13 07:47:59;;;;;;;6.05;2.83;;;13.80;94.80;;;;;;7406433;19;20474;-36
2022/12/13 07:50:28;;;;;;;4.65;2.47;;;13.80;94.80;;;;;;7405793;19;19914;-36
2022/12/13 07:53:07;;;;;;;5.57;3.33;;;13.80;94.80;;;;;;7406368;19;19922;-35
2022/12/13 07:55:37;;;;;;;6.53;3.60;;;13.70;94.80;;;;;;7403616;19;19927;-36
2022/12/13 07:58:06;;;;;;;;;;;13.80;95.10;;;;;;7408032;19;19951;-36
2022/12/13 08:00:35;;;;;;;4.65;2.17;;;13.70;94.90;;;;;;7392296;19;19922;-37
2022/12/13 08:03:07;;;;;;;5.28;3.88;;;13.70;94.80;;;;;;7297577;19;19918;-35
2022/12/13 08:05:36;;;;;;;4.63;2.33;;;13.70;94.80;;;;;;7406217;19;20268;-37
2022/12/13 08:08:06;;;;;;;6.38;3.55;;;13.70;94.80;;;;;;7358069;19;93766;-36
2022/12/13 08:10:36;;;;;;;5.68;2.80;;;13.70;94.80;;;;;;7404427;19;19923;-35
2022/12/13 08:13:06;;;;;;;5.38;3.10;;;13.70;94.80;;;;;;7406470;19;20477;-35
2022/12/13 08:15:35;;;;;;;6.47;3.72;;;13.70;94.80;;;;;;7405870;19;19938;-36
2022/12/13 08:18:06;;;;;;;4.43;2.13;;;13.70;94.80;;;;;;7405453;19;20245;-37
2022/12/13 08:20:36;;;;;;;5.18;2.83;;;13.70;94.70;;;;;;7402665;19;20266;-35
2022/12/13 08:23:05;;;;;;;;;;;13.80;94.70;;;;;;7407366;19;19925;-37
2022/12/13 08:25:34;;;;;;;6.30;3.40;;;13.80;94.70;;;;;;7397745;19;19922;-36
2022/12/13 08:28:03;;;;;;;5.43;2.95;;;13.80;94.70;;;;;;7398786;19;19925;-37
2022/12/13 08:30:34;;;;;;;5.75;3.72;;;13.80;94.70;;;;;;7247468;19;101631;-36
2022/12/13 08:33:14;;;;;;;5.45;3.33;;;13.80;94.90;;;;;;7246542;19;19995;-35
2022/12/13 08:35:44;;;;;;;5.63;3.45;;;13.80;94.60;;;;;;7401475;19;20357;-36
2022/12/13 08:38:13;;;;;;;5.53;3.70;;;13.90;94.60;;;;;;7400411;19;19978;-36
2022/12/13 08:40:43;;;;;;;5.97;2.92;;;14.00;94.60;;;;;;7399873;19;20269;-35
2022/12/13 08:52:09;;;;;;;5.47;2.20;;;15.00;93.70;;;;;;7411216;19;20312;-64
2022/12/13 08:54:39;;;;;;;5.35;2.75;;;15.10;93.80;;;;;;7437888;19;19921;-63
2022/12/13 08:57:08;;;;;;;5.40;4.38;;;15.10;93.80;;;;;;7439466;19;20387;-62
2022/12/13 08:59:37;;;;;;;5.53;2.63;;;15.30;93.80;;;;;;7280737;19;19922;-65
2022/12/13 09:02:08;;;;;;;5.70;2.45;;;15.40;93.90;;;;;;7437477;19;19919;-64
2022/12/13 09:04:37;;;;;;;5.75;3.58;;;15.50;93.90;;;;;;7436546;19;20260;-62
2022/12/13 09:07:10;;;;;;;4.70;2.75;;;15.50;93.90;;;;;;7263977;19;19911;-63
2022/12/13 09:09:40;;;;;;;5.40;2.85;;;15.60;94.00;;;;;;6514364;19;19915;-64
2022/12/13 09:12:09;;;;;;;5.25;2.83;;;15.60;94.00;;;;;;6347441;19;19922;-62
2022/12/13 09:25:23;;;;;;;4.93;2.75;;;18.80;65.30;;;;;;6822603;19;20616;-69
2022/12/13 09:27:52;;;;;;;5.57;2.97;;;16.80;65.50;;;;;;6524082;19;80252;-69
2022/12/13 09:30:26;;;;;;;6.80;3.92;;;16.10;67.20;;;;;;7252081;19;2005865;-71
2022/12/13 09:32:55;;;;;;;5.55;2.83;;;15.90;68.10;;;;;;7340744;19;20361;-70
2022/12/13 09:35:24;;;;;;;5.43;3.75;;;15.80;68.30;;;;;;7434127;19;19922;-72
2022/12/13 09:37:53;;;;;;;6.75;3.63;;;15.80;68.40;;;;;;7408871;19;20565;-67
2022/12/13 09:40:29;;;;;;;7.00;3.67;;;16.30;66.90;;;;;;7435997;19;19914;-69
2022/12/13 09:42:58;;;;;;;6.63;3.95;;;16.60;65.80;;;;;;7434978;19;20280;-70
2022/12/13 09:45:29;;;;;;;5.68;2.72;;;16.70;65.20;;;;;;7436013;19;19978;-71
2022/12/13 09:48:00;;;;;;;6.13;2.88;;;16.70;65.00;;;;;;7437948;19;19918;-68
2022/12/13 09:50:31;;;;;;;5.63;3.95;;;16.70;65.30;;;;;;7439989;19;20333;-68
2022/12/13 09:53:01;;;;;;;7.32;3.92;;;16.80;64.70;;;;;;7437956;19;20360;-67
2022/12/13 09:55:36;;;;;;;5.80;2.88;;;16.80;64.60;;;;;;7438053;19;19959;-68
2022/12/13 09:58:10;;;;;;;5.45;3.25;;;16.80;64.50;;;;;;7437488;19;19936;-67
2022/12/13 10:00:40;;;;;;;6.30;3.25;;;16.90;64.10;;;;;;7434843;19;19922;-66
2022/12/13 10:03:15;;;;;;;5.28;2.63;;;16.90;64.20;;;;;;7435793;19;20339;-67
2022/12/13 10:06:01;;;;;;;6.68;2.70;;;16.90;64.10;;;;;;7434165;19;19919;-68
2022/12/13 10:08:36;;;;;;;5.28;2.88;;;16.90;64.00;;;;;;7437116;19;19923;-67
2022/12/13 10:11:07;;;;;;;5.05;2.85;;;16.80;64.10;;;;;;7437591;19;20313;-67
2022/12/13 10:13:44;;;;;;;4.88;4.05;;;16.90;64.10;;;;;;7430687;19;19929;-67
2022/12/13 10:16:19;;;;;;;7.47;3.28;;;16.90;64.10;;;;;;7435524;19;20573;-67
2022/12/13 10:18:55;;;;;;;;;;;16.90;64.10;;;;;;7436721;19;19918;-67
2022/12/13 10:21:29;;;;;;;5.53;3.28;;;17.00;64.00;;;;;;7432105;19;19932;-68
2022/12/13 10:24:03;;;;;;;6.40;3.72;;;17.00;63.80;;;;;;7433384;19;19915;-68
2022/12/13 10:26:41;;;;;;;5.15;3.38;;;17.00;63.80;;;;;;7436095;19;19926;-67
2022/12/13 10:29:11;;;;;;;5.85;2.72;;;17.00;64.00;;;;;;7435183;19;19936;-68
2022/12/13 10:31:43;;;;;;;4.82;3.33;;;17.00;63.90;;;;;;7433708;19;19922;-70
2022/12/13 10:34:25;;;;;;;6.22;3.10;;;17.00;63.80;;;;;;7435751;19;19919;-67
2022/12/13 10:36:54;;;;;;;5.25;3.40;;;17.00;63.80;;;;;;7404998;19;19915;-68
2022/12/13 10:39:40;;;;;;;4.57;2.85;;;17.00;64.40;;;;;;7408468;19;19935;-68
2022/12/13 10:42:18;;;;;;;4.45;3.42;;;17.00;63.70;;;;;;7407217;19;19918;-70
2022/12/13 10:44:48;;;;;;;5.00;2.60;;;17.10;64.00;;;;;;7404353;19;19939;-70
2022/12/13 10:48:58;;;;;;;5.57;3.65;;;17.20;63.10;;;;;;7434355;19;20885;-63
2022/12/13 10:51:29;;;;;;;5.07;3.80;;;17.80;62.40;;;;;;7341009;19;19983;-62
2022/12/13 10:54:01;;;;;;;6.40;4.28;;;17.90;61.90;;;;;;7431377;19;19926;-62
2022/12/13 10:56:37;;;;;;;4.90;2.97;;;17.90;61.60;;;;;;7397735;19;19918;-60
2022/12/13 10:59:24;;;;;;;3.97;2.65;;;17.90;61.70;;;;;;7434142;19;19998;-61
2022/12/13 11:01:53;;;;;;;5.70;2.78;;;17.90;61.60;;;;;;7436289;19;19989;-60
2022/12/13 11:04:29;;;;;;;4.15;2.08;;;17.90;61.60;;;;;;7437874;19;20253;-60
2022/12/13 11:07:00;;;;;;;6.82;3.75;;;17.90;61.50;;;;;;7435837;19;19919;-60
2022/12/13 11:09:32;;;;;;;5.50;3.13;;;18.00;61.30;;;;;;7437606;19;20321;-60
2022/12/13 11:12:03;;;;;;;5.90;4.20;;;18.00;61.30;;;;;;7337130;19;19959;-60
2022/12/13 11:14:54;;;;;;;4.30;2.30;;;18.00;61.30;;;;;;7435200;19;19930;-60
2022/12/13 11:17:26;;;;;;;4.90;3.70;;;18.00;61.30;;;;;;7437660;19;19922;-60
2022/12/13 11:19:59;;;;;;;4.13;2.33;;;18.10;61.20;;;;;;7438278;19;19922;-61
2022/12/13 11:22:31;;;;;;;5.38;3.55;;;18.10;61.00;;;;;;7333562;19;20406;-61
2022/12/13 11:25:03;;;;;;;4.78;3.45;;;18.10;61.00;;;;;;7436888;19;19926;-61
2022/12/13 11:27:54;;;;;;;4.45;2.40;;;18.20;60.90;;;;;;7439197;19;20450;-61
2022/12/13 11:30:26;;;;;;;4.80;2.55;;;18.20;60.80;;;;;;7434675;19;19918;-61
2022/12/13 11:33:15;;;;;;;6.47;3.17;;;18.30;60.80;;;;;;7438359;19;19934;-60
2022/12/13 11:35:59;;;;;;;5.47;2.75;;;18.20;60.80;;;;;;7439132;19;19981;-60
2022/12/13 11:38:34;;;;;;;4.22;2.65;;;18.20;60.80;;;;;;7438396;19;19918;-60
2022/12/13 11:41:13;;;;;;;6.70;4.43;;;18.30;60.50;;;;;;7425699;19;19922;-61
2022/12/13 11:43:45;;;;;;;5.82;3.85;;;18.30;60.60;;;;;;7436018;19;19927;-61
2022/12/13 11:51:28;;;;;;;5.85;3.85;;;18.70;60.40;;;;;;7418494;19;20406;-54
2022/12/13 11:54:00;;;;;;;6.07;4.25;;;;;;;;;;7039174;19;5010412;-52
2022/12/13 11:56:37;;;;;;;5.75;4.05;;;18.80;64.60;;;;;;7433041;19;19926;-63
2022/12/13 11:59:14;;;;;;;6.80;4.55;;;18.90;64.30;;;;;;7345223;19;19923;-64
2022/12/13 12:01:48;;;;;;;5.88;2.90;;;18.90;64.10;;;;;;7437510;19;19977;-64
2022/12/13 12:04:25;;;;;;;7.40;3.05;;;18.90;64.00;;;;;;7438269;19;19927;-64
2022/12/13 12:07:02;;;;;;;6.32;4.05;;;18.80;63.70;;;;;;7437527;19;19935;-64
2022/12/13 12:09:33;;;;;;;8.52;4.60;;;18.80;63.40;;;;;;7324623;19;20576;-62
2022/12/13 12:12:09;;;;;;;6.72;3.13;;;18.90;63.50;;;;;;7430155;19;20266;-62
2022/12/13 12:14:48;;;;;;;6.75;4.70;;;18.80;63.20;;;;;;7434639;19;19922;-62
2022/12/13 12:17:21;;;;;;;5.47;4.00;;;18.90;63.10;;;;;;7432820;19;19918;-63
2022/12/13 12:19:54;;;;;;;8.55;4.05;;;18.80;63.00;;;;;;7434947;19;19919;-62
2022/12/13 12:22:38;;;;;;;5.32;2.78;;;18.80;62.80;;;;;;7438464;19;19935;-62
2022/12/13 12:25:27;;;;;;;8.02;4.10;;;18.80;62.30;;;;;;7437729;19;19929;-62
2022/12/13 12:28:06;;;;;;;7.75;4.45;;;18.90;62.20;;;;;;7437877;19;19926;-62
2022/12/13 12:30:44;;;;;;;6.90;3.65;;;18.90;62.20;;;;;;7437095;19;19918;-62
2022/12/13 12:33:23;;;;;;;4.60;2.50;;;18.90;62.10;;;;;;7435893;19;19922;-63
2022/12/13 12:36:16;;;;;;;6.22;4.28;;;18.90;62.10;;;;;;7439191;19;19995;-62
2022/12/13 12:39:16;;;;;;;7.18;3.33;;;18.90;61.70;;;;;;7437158;19;19918;-62
2022/12/13 12:42:04;;;;;;;6.32;2.40;;;18.90;61.70;;;;;;7437592;19;19926;-62
2022/12/13 12:44:43;;;;;;;6.95;3.90;;;18.90;61.80;;;;;;7437760;19;19948;-62
2022/12/13 12:47:25;;;;;;;8.52;4.53;;;19.00;62.10;;;;;;7435870;19;19918;-62
2022/12/13 12:50:26;;;;;;;5.88;2.75;;;19.00;61.70;;;;;;7435199;19;19990;-62
2022/12/13 12:53:09;;;;;;;7.32;3.13;;;19.00;61.70;;;;;;7437235;19;19922;-62
2022/12/13 12:55:54;;;;;;;6.10;4.30;;;18.90;61.60;;;;;;7437529;19;19937;-63
2022/12/13 12:58:31;;;;;;;5.47;3.15;;;19.00;61.60;;;;;;7437710;19;19947;-63
2022/12/13 13:01:16;;;;;;;5.95;4.43;;;19.00;61.70;;;;;;7425978;19;20301;-63
2022/12/13 13:03:46;;;;;;;6.13;4.03;;;18.90;61.50;;;;;;7407652;19;19926;-62
2022/12/13 13:06:24;;;;;;;6.80;4.00;;;18.90;61.70;;;;;;7408926;19;19922;-62
2022/12/13 13:08:58;;;;;;;5.75;3.83;;;18.90;61.70;;;;;;7407605;19;19937;-63
2022/12/13 13:11:32;;;;;;;5.88;2.97;;;18.90;61.70;;;;;;7407373;19;19926;-63
2022/12/13 13:14:08;;;;;;;5.93;4.25;;;18.80;61.70;;;;;;7408390;19;19974;-63
2022/12/13 13:16:38;;;;;;;;;;;18.80;61.60;;;;;;7410861;19;19951;-62
2022/12/13 13:19:42;;;;;;;5.30;3.58;;;18.80;61.30;;;;;;7406079;19;20283;-62
2022/12/13 13:22:33;;;;;;;5.50;2.97;;;18.80;61.60;;;;;;7409117;19;19918;-62
2022/12/13 13:25:24;;;;;;;5.57;3.10;;;18.70;61.60;;;;;;7406424;19;19956;-62
2022/12/13 13:28:05;;;;;;;5.82;4.25;;;18.70;61.60;;;;;;7408077;19;20331;-63
2022/12/13 13:30:34;;;;;;;6.55;2.97;;;18.70;61.60;;;;;;7406345;19;19943;-62
2022/12/13 13:33:03;;;;;;;5.90;3.72;;;18.70;61.70;;;;;;7408154;19;19918;-62
2022/12/13 13:35:54;;;;;;;5.53;4.03;;;18.70;61.70;;;;;;7407455;19;19918;-62
2022/12/13 13:38:54;;;;;;;;;;;18.70;61.40;;;;;;7410625;19;19922;-62
2022/12/13 13:42:08;;;;;;;6.10;5.47;;;18.60;61.30;;;;;;7404391;19;20404;-62
2022/12/13 13:45:04;;;;;;;5.07;4.05;;;18.60;61.60;;;;;;7406679;19;19922;-62
2022/12/13 13:47:40;;;;;;;5.75;4.15;;;18.50;61.50;;;;;;7409248;19;19955;-63
2022/12/13 13:50:45;;;;;;;5.40;4.00;;;18.50;62.20;;;;;;7406168;19;19918;-62
2022/12/13 13:53:50;;;;;;;4.78;2.60;;;18.60;61.60;;;;;;7406816;19;19922;-62